Time;durP1;ratioP1;P1;durP2;ratioP2;P2;SDS_P1;SDS_P2;PMS_P1;PMS_P2;Temp;Humidity;BMP_temperature;BMP_pressure;BME280_temperature;BME280_humidity;BME280_pressure;Samples;Min_cycle;Max_cycle;Signal;HPM_P1;HPM_P2
2023/09/01 00:01:41;;;;;;;8.50;5.90;;;;;;;-128.00;-1.00;-1.00;105634;1250;1006035;-80
2023/09/01 00:04:07;;;;;;;10.10;5.90;;;;;;;-128.00;-1.00;-1.00;105516;1251;1004058;-80
2023/09/01 00:06:34;;;;;;;12.50;5.40;;;;;;;-128.00;-1.00;-1.00;105649;1250;1004273;-79
2023/09/01 00:09:00;;;;;;;8.80;5.60;;;;;;;-128.00;-1.00;-1.00;105625;1251;1003902;-80
2023/09/01 00:11:27;;;;;;;7.00;4.90;;;;;;;-128.00;-1.00;-1.00;105613;1251;1004854;-80
2023/09/01 00:13:53;;;;;;;11.10;6.40;;;;;;;-128.00;-1.00;-1.00;105630;1250;1004733;-80
2023/09/01 00:16:20;;;;;;;7.60;5.20;;;;;;;-128.00;-1.00;-1.00;105661;1250;1004120;-80
2023/09/01 00:18:46;;;;;;;8.40;5.10;;;;;;;-128.00;-1.00;-1.00;105723;1250;1003480;-79
2023/09/01 00:21:13;;;;;;;9.50;6.00;;;;;;;-128.00;-1.00;-1.00;105747;1250;1004643;-80
2023/09/01 00:23:40;;;;;;;6.60;5.60;;;;;;;-128.00;-1.00;-1.00;105694;1250;1003877;-79
2023/09/01 00:26:06;;;;;;;7.10;5.70;;;;;;;-128.00;-1.00;-1.00;105718;1251;1004390;-79
2023/09/01 00:28:33;;;;;;;10.50;5.00;;;;;;;-128.00;-1.00;-1.00;105716;1251;1004339;-80
2023/09/01 00:31:00;;;;;;;10.40;6.10;;;;;;;-128.00;-1.00;-1.00;105725;1250;1003909;-80
2023/09/01 00:33:29;;;;;;;7.70;5.50;;;;;;;-128.00;-1.00;-1.00;105751;1250;1004124;-80
2023/09/01 00:35:57;;;;;;;9.70;4.90;;;;;;;-128.00;-1.00;-1.00;105771;1251;1057131;-79
2023/09/01 00:38:29;;;;;;;8.00;5.00;;;;;;;-128.00;-1.00;-1.00;105911;1250;1004312;-80
2023/09/01 00:40:55;;;;;;;6.80;4.70;;;;;;;-128.00;-1.00;-1.00;105680;1251;1046651;-79
2023/09/01 00:43:22;;;;;;;8.20;5.70;;;;;;;-128.00;-1.00;-1.00;105617;1250;1004621;-79
2023/09/01 00:45:48;;;;;;;11.80;6.10;;;;;;;-128.00;-1.00;-1.00;105609;1250;1004751;-79
2023/09/01 00:48:15;;;;;;;6.70;5.30;;;;;;;-128.00;-1.00;-1.00;105432;1251;1005154;-80
2023/09/01 00:50:42;;;;;;;5.90;4.70;;;;;;;-128.00;-1.00;-1.00;105608;1250;1003753;-80
2023/09/01 00:53:08;;;;;;;6.80;5.00;;;;;;;-128.00;-1.00;-1.00;105422;1251;1003721;-80
2023/09/01 00:55:35;;;;;;;5.90;4.90;;;;;;;-128.00;-1.00;-1.00;105623;1251;1004783;-80
2023/09/01 00:58:02;;;;;;;7.70;5.10;;;;;;;-128.00;-1.00;-1.00;105620;1250;1004316;-80
2023/09/01 01:00:31;;;;;;;8.50;5.00;;;;;;;-128.00;-1.00;-1.00;105505;1250;1004923;-80
2023/09/01 01:03:03;;;;;;;7.50;4.60;;;;;;;-128.00;-1.00;-1.00;105594;1250;1059880;-79
2023/09/01 01:05:35;;;;;;;7.30;3.80;;;;;;;-128.00;-1.00;-1.00;105794;1250;1046325;-80
2023/09/01 01:08:11;;;;;;;6.60;4.70;;;;;;;-128.00;-1.00;-1.00;105763;1252;1046858;-80
2023/09/01 01:10:51;;;;;;;7.30;5.30;;;;;;;-128.00;-1.00;-1.00;105687;1250;1061085;-80
2023/09/01 01:13:20;;;;;;;9.00;5.00;;;;;;;-128.00;-1.00;-1.00;105684;1251;1058561;-79
2023/09/01 01:15:46;;;;;;;;;;;;;;;-128.00;-1.00;-1.00;105560;1251;1060001;-80
2023/09/01 01:18:16;;;;;;;6.50;4.60;;;;;;;-128.00;-1.00;-1.00;105568;1250;1004197;-79
2023/09/01 01:20:44;;;;;;;8.60;5.00;;;;;;;-128.00;-1.00;-1.00;105738;1250;1047035;-80
2023/09/01 01:23:14;;;;;;;9.40;6.20;;;;;;;-128.00;-1.00;-1.00;105728;1249;1061087;-79
2023/09/01 01:25:48;;;;;;;7.30;5.50;;;;;;;-128.00;-1.00;-1.00;105794;1250;1057866;-79
2023/09/01 01:28:15;;;;;;;7.70;5.50;;;;;;;-128.00;-1.00;-1.00;105666;1250;1059773;-79
2023/09/01 01:30:42;;;;;;;7.50;5.40;;;;;;;-128.00;-1.00;-1.00;105711;1249;1004395;-79
2023/09/01 01:33:24;;;;;;;10.50;5.30;;;;;;;-128.00;-1.00;-1.00;105584;1250;1004610;-79
2023/09/01 01:36:10;;;;;;;7.20;4.50;;;;;;;-128.00;-1.00;-1.00;105801;1250;1062120;-80
2023/09/01 01:38:39;;;;;;;10.20;4.70;;;;;;;-128.00;-1.00;-1.00;105712;1251;1058230;-79
2023/09/01 01:41:17;;;;;;;9.00;5.30;;;;;;;-128.00;-1.00;-1.00;105629;1251;1058366;-79
2023/09/01 01:43:43;;;;;;;5.30;3.90;;;;;;;-128.00;-1.00;-1.00;105605;1251;1046806;-79
2023/09/01 01:46:09;;;;;;;7.60;4.70;;;;;;;-128.00;-1.00;-1.00;105547;1251;1004034;-79
2023/09/01 01:48:37;;;;;;;6.40;5.10;;;;;;;-128.00;-1.00;-1.00;105590;1250;1005035;-79
2023/09/01 01:51:05;;;;;;;10.70;4.40;;;;;;;-128.00;-1.00;-1.00;105633;1250;1004536;-80
2023/09/01 01:53:34;;;;;;;8.30;3.50;;;;;;;-128.00;-1.00;-1.00;105802;1251;1005449;-79
2023/09/01 01:56:02;;;;;;;6.50;3.10;;;;;;;-128.00;-1.00;-1.00;105609;1250;1047349;-80
2023/09/01 01:58:28;;;;;;;8.10;2.90;;;;;;;-128.00;-1.00;-1.00;105558;1250;1004176;-80
2023/09/01 02:00:55;;;;;;;4.00;2.90;;;;;;;-128.00;-1.00;-1.00;105627;1250;1004550;-79
2023/09/01 02:03:22;;;;;;;4.90;2.40;;;;;;;-128.00;-1.00;-1.00;105801;1251;1003510;-80
2023/09/01 02:05:49;;;;;;;3.70;2.90;;;;;;;-128.00;-1.00;-1.00;105795;1250;1004142;-80
2023/09/01 02:08:15;;;;;;;8.80;5.70;;;;;;;-128.00;-1.00;-1.00;105691;1250;1003786;-79
2023/09/01 02:10:42;;;;;;;15.10;6.50;;;;;;;-128.00;-1.00;-1.00;105614;1251;1004422;-79
2023/09/01 02:13:08;;;;;;;8.50;6.40;;;;;;;-128.00;-1.00;-1.00;105617;1250;1005115;-79
2023/09/01 02:15:35;;;;;;;8.60;6.40;;;;;;;-128.00;-1.00;-1.00;105619;1250;1003633;-79
2023/09/01 02:18:02;;;;;;;13.50;5.70;;;;;;;-128.00;-1.00;-1.00;105623;1251;1005995;-79
2023/09/01 02:20:30;;;;;;;6.60;4.00;;;;;;;-128.00;-1.00;-1.00;105556;1250;1004291;-79
2023/09/01 02:22:57;;;;;;;9.50;4.00;;;;;;;-128.00;-1.00;-1.00;105390;1253;1004457;-79
2023/09/01 02:25:23;;;;;;;4.80;2.50;;;;;;;-128.00;-1.00;-1.00;105436;1253;1004962;-80
2023/09/01 02:27:50;;;;;;;3.00;2.30;;;;;;;-128.00;-1.00;-1.00;105578;1251;1004038;-80
2023/09/01 02:30:16;;;;;;;5.20;2.60;;;;;;;-128.00;-1.00;-1.00;105603;1250;1004252;-80
2023/09/01 02:32:43;;;;;;;3.20;2.20;;;;;;;-128.00;-1.00;-1.00;105557;1250;1005437;-79
2023/09/01 02:35:09;;;;;;;10.00;3.30;;;;;;;-128.00;-1.00;-1.00;105772;1251;1004039;-79
2023/09/01 02:37:36;;;;;;;3.50;2.40;;;;;;;-128.00;-1.00;-1.00;105659;1252;1004136;-80
2023/09/01 02:40:12;;;;;;;3.70;2.60;;;;;;;-128.00;-1.00;-1.00;105782;1250;1004087;-80
2023/09/01 02:42:39;;;;;;;5.60;3.10;;;;;;;-128.00;-1.00;-1.00;105799;1251;1059536;-80
2023/09/01 02:45:07;;;;;;;5.90;3.00;;;;;;;-128.00;-1.00;-1.00;105805;1250;1004424;-79
2023/09/01 02:47:33;;;;;;;3.60;3.10;;;;;;;-128.00;-1.00;-1.00;105858;1251;1004562;-80
2023/09/01 02:50:01;;;;;;;6.60;3.90;;;;;;;-128.00;-1.00;-1.00;105801;1250;1003733;-79
2023/09/01 02:52:28;;;;;;;15.70;6.20;;;;;;;-128.00;-1.00;-1.00;105856;1250;1004512;-79
2023/09/01 02:54:55;;;;;;;5.50;3.90;;;;;;;-128.00;-1.00;-1.00;105605;1250;1003750;-80
2023/09/01 02:57:22;;;;;;;7.00;3.10;;;;;;;-128.00;-1.00;-1.00;105601;1251;1004613;-79
2023/09/01 02:59:50;;;;;;;3.20;2.80;;;;;;;-128.00;-1.00;-1.00;105746;1251;1004457;-79
2023/09/01 03:02:16;;;;;;;4.90;3.00;;;;;;;-128.00;-1.00;-1.00;105596;1251;1003767;-79
2023/09/01 03:04:43;;;;;;;6.20;2.80;;;;;;;-128.00;-1.00;-1.00;105617;1250;1004376;-80
2023/09/01 03:07:09;;;;;;;8.60;4.00;;;;;;;-128.00;-1.00;-1.00;105589;1251;1004622;-80
2023/09/01 03:09:36;;;;;;;6.70;4.10;;;;;;;-128.00;-1.00;-1.00;105617;1251;1004740;-80
2023/09/01 03:12:03;;;;;;;8.60;6.50;;;;;;;-128.00;-1.00;-1.00;105620;1251;1004584;-79
2023/09/01 03:14:30;;;;;;;8.10;4.40;;;;;;;-128.00;-1.00;-1.00;105639;1250;1003678;-80
2023/09/01 03:16:57;;;;;;;6.20;5.00;;;;;;;-128.00;-1.00;-1.00;105680;1250;1004114;-80
2023/09/01 03:19:23;;;;;;;6.60;4.20;;;;;;;-128.00;-1.00;-1.00;105756;1250;1004172;-80
2023/09/01 03:21:50;;;;;;;6.40;4.10;;;;;;;-128.00;-1.00;-1.00;105594;1251;1004606;-80
2023/09/01 03:24:16;;;;;;;5.80;4.70;;;;;;;-128.00;-1.00;-1.00;105768;1250;1005352;-80
2023/09/01 03:26:43;;;;;;;5.30;4.30;;;;;;;-128.00;-1.00;-1.00;105748;1250;1004663;-81
2023/09/01 03:29:09;;;;;;;8.00;4.30;;;;;;;-128.00;-1.00;-1.00;105724;1251;1004921;-80
2023/09/01 03:31:37;;;;;;;7.60;4.00;;;;;;;-128.00;-1.00;-1.00;105708;1251;1003435;-80
2023/09/01 03:34:06;;;;;;;6.60;4.30;;;;;;;-128.00;-1.00;-1.00;105709;1251;1005766;-80
2023/09/01 03:36:33;;;;;;;6.70;4.60;;;;;;;-128.00;-1.00;-1.00;105711;1251;1046906;-79
2023/09/01 03:39:00;;;;;;;13.20;3.80;;;;;;;-128.00;-1.00;-1.00;105702;1250;1003570;-79
2023/09/01 03:41:26;;;;;;;8.70;3.40;;;;;;;-128.00;-1.00;-1.00;105593;1251;1004039;-80
2023/09/01 03:43:53;;;;;;;5.50;3.50;;;;;;;-128.00;-1.00;-1.00;105574;1251;1003951;-79
2023/09/01 03:46:20;;;;;;;6.60;5.00;;;;;;;-128.00;-1.00;-1.00;105589;1251;1004434;-79
2023/09/01 03:48:46;;;;;;;7.20;3.70;;;;;;;-128.00;-1.00;-1.00;105420;1251;1003902;-79
2023/09/01 03:51:16;;;;;;;9.90;4.30;;;;;;;-128.00;-1.00;-1.00;105696;1251;1003761;-79
2023/09/01 03:53:43;;;;;;;9.50;4.50;;;;;;;-128.00;-1.00;-1.00;105794;1251;1057329;-79
2023/09/01 03:56:13;;;;;;;6.30;3.80;;;;;;;-128.00;-1.00;-1.00;105797;1251;1004004;-79
2023/09/01 03:58:40;;;;;;;6.50;3.50;;;;;;;-128.00;-1.00;-1.00;105789;1251;1045809;-80
2023/09/01 04:01:11;;;;;;;7.80;3.80;;;;;;;-128.00;-1.00;-1.00;105713;1251;1004415;-79
2023/09/01 04:03:38;;;;;;;4.90;3.20;;;;;;;-128.00;-1.00;-1.00;105512;1251;1062875;-79
2023/09/01 04:06:05;;;;;;;9.40;4.30;;;;;;;-128.00;-1.00;-1.00;105614;1251;1003405;-79
2023/09/01 04:08:34;;;;;;;5.20;4.00;;;;;;;-128.00;-1.00;-1.00;105778;1251;1004170;-79
2023/09/01 04:11:02;;;;;;;5.70;3.50;;;;;;;-128.00;-1.00;-1.00;105794;1251;1004793;-80
2023/09/01 04:13:32;;;;;;;5.10;3.40;;;;;;;-128.00;-1.00;-1.00;105670;1251;1004227;-79
2023/09/01 04:15:58;;;;;;;5.30;4.20;;;;;;;-128.00;-1.00;-1.00;105615;1250;1062046;-80
2023/09/01 04:18:25;;;;;;;6.30;2.90;;;;;;;-128.00;-1.00;-1.00;105603;1251;1004898;-79
2023/09/01 04:20:53;;;;;;;5.50;3.70;;;;;;;-128.00;-1.00;-1.00;105605;1250;1003861;-80
2023/09/01 04:23:19;;;;;;;8.00;3.50;;;;;;;-128.00;-1.00;-1.00;105439;1251;1004598;-80
2023/09/01 04:25:46;;;;;;;8.90;3.60;;;;;;;-128.00;-1.00;-1.00;105474;1251;1004599;-80
2023/09/01 04:28:13;;;;;;;9.20;4.00;;;;;;;-128.00;-1.00;-1.00;105603;1255;1003922;-80
2023/09/01 04:30:40;;;;;;;6.40;4.10;;;;;;;-128.00;-1.00;-1.00;105490;1251;1004835;-80
2023/09/01 04:33:06;;;;;;;6.90;3.90;;;;;;;-128.00;-1.00;-1.00;105619;1250;1004122;-80
2023/09/01 04:35:33;;;;;;;6.00;4.10;;;;;;;-128.00;-1.00;-1.00;105586;1251;1004393;-79
2023/09/01 04:37:59;;;;;;;9.20;4.10;;;;;;;-128.00;-1.00;-1.00;105617;1251;1003646;-79
2023/09/01 04:40:26;;;;;;;7.10;3.60;;;;;;;-128.00;-1.00;-1.00;105589;1250;1004558;-79
2023/09/01 04:42:53;;;;;;;10.80;4.40;;;;;;;-128.00;-1.00;-1.00;105572;1251;1004327;-79
2023/09/01 04:45:19;;;;;;;14.80;4.10;;;;;;;-128.00;-1.00;-1.00;105594;1251;1003820;-79
2023/09/01 04:47:46;;;;;;;6.50;3.90;;;;;;;-128.00;-1.00;-1.00;105586;1251;1004221;-80
2023/09/01 04:50:12;;;;;;;7.70;4.80;;;;;;;-128.00;-1.00;-1.00;105608;1251;1003499;-79
2023/09/01 04:52:39;;;;;;;6.40;3.70;;;;;;;-128.00;-1.00;-1.00;105590;1251;1004199;-79
2023/09/01 04:55:08;;;;;;;6.00;4.20;;;;;;;-128.00;-1.00;-1.00;105576;1253;1004601;-79
2023/09/01 04:57:35;;;;;;;7.90;3.70;;;;;;;-128.00;-1.00;-1.00;105776;1251;1058154;-80
2023/09/01 05:00:04;;;;;;;4.50;3.40;;;;;;;-128.00;-1.00;-1.00;105783;1251;1004502;-80
2023/09/01 05:02:30;;;;;;;6.60;4.10;;;;;;;-128.00;-1.00;-1.00;105558;1251;1047646;-80
2023/09/01 05:04:57;;;;;;;8.20;5.60;;;;;;;-128.00;-1.00;-1.00;105566;1251;1004896;-80
2023/09/01 05:07:23;;;;;;;10.30;4.30;;;;;;;-128.00;-1.00;-1.00;105498;1254;1004016;-79
2023/09/01 05:09:50;;;;;;;11.40;7.50;;;;;;;-128.00;-1.00;-1.00;105556;1250;1005649;-79
2023/09/01 05:12:17;;;;;;;5.90;4.20;;;;;;;-128.00;-1.00;-1.00;105567;1251;1003788;-79
2023/09/01 05:14:43;;;;;;;6.80;4.50;;;;;;;-128.00;-1.00;-1.00;105685;1250;1004077;-79
2023/09/01 05:17:09;;;;;;;8.80;5.50;;;;;;;-128.00;-1.00;-1.00;105569;1251;1004331;-79
2023/09/01 05:19:36;;;;;;;4.70;3.30;;;;;;;-128.00;-1.00;-1.00;105601;1251;1004019;-80
2023/09/01 05:22:03;;;;;;;4.20;3.10;;;;;;;-128.00;-1.00;-1.00;105562;1250;1004623;-79
2023/09/01 05:24:30;;;;;;;9.00;4.60;;;;;;;-128.00;-1.00;-1.00;105742;1251;1004302;-79
2023/09/01 05:26:56;;;;;;;10.40;3.60;;;;;;;-128.00;-1.00;-1.00;105674;1250;1004161;-80
2023/09/01 05:29:23;;;;;;;7.20;3.70;;;;;;;-128.00;-1.00;-1.00;105714;1251;1003693;-80
2023/09/01 05:31:49;;;;;;;12.20;4.10;;;;;;;-128.00;-1.00;-1.00;105926;1250;1003867;-79
2023/09/01 05:34:17;;;;;;;9.90;4.20;;;;;;;-128.00;-1.00;-1.00;105830;1251;1003507;-79
2023/09/01 05:36:43;;;;;;;7.30;3.70;;;;;;;-128.00;-1.00;-1.00;105522;1251;1004014;-79
2023/09/01 05:39:10;;;;;;;7.30;3.50;;;;;;;-128.00;-1.00;-1.00;105504;1252;1004155;-79
2023/09/01 05:41:36;;;;;;;5.60;4.00;;;;;;;-128.00;-1.00;-1.00;105519;1251;1003495;-79
2023/09/01 05:44:03;;;;;;;9.80;4.00;;;;;;;-128.00;-1.00;-1.00;105451;1253;1004996;-80
2023/09/01 05:46:30;;;;;;;8.10;3.40;;;;;;;-128.00;-1.00;-1.00;105573;1251;1003755;-80
2023/09/01 05:48:56;;;;;;;6.40;3.90;;;;;;;-128.00;-1.00;-1.00;105766;1251;1003619;-79
2023/09/01 05:51:23;;;;;;;7.20;4.20;;;;;;;-128.00;-1.00;-1.00;105598;1251;1003805;-79
2023/09/01 05:53:49;;;;;;;6.10;3.90;;;;;;;-128.00;-1.00;-1.00;105576;1250;1004605;-80
2023/09/01 05:56:16;;;;;;;6.00;4.00;;;;;;;-128.00;-1.00;-1.00;105566;1253;1004225;-80
2023/09/01 05:58:42;;;;;;;10.80;4.60;;;;;;;-128.00;-1.00;-1.00;105446;1251;1005799;-80
2023/09/01 06:01:09;;;;;;;7.30;4.10;;;;;;;-128.00;-1.00;-1.00;105507;1251;1004516;-80
2023/09/01 06:03:35;;;;;;;9.60;4.10;;;;;;;-128.00;-1.00;-1.00;105525;1251;1004039;-80
2023/09/01 06:06:02;;;;;;;9.10;4.20;;;;;;;-128.00;-1.00;-1.00;105555;1251;1004895;-79
2023/09/01 06:08:28;;;;;;;7.50;3.80;;;;;;;-128.00;-1.00;-1.00;105633;1251;1004807;-80
2023/09/01 06:11:05;;;;;;;7.30;3.90;;;;;;;-128.00;-1.00;-1.00;105777;1251;1003815;-80
2023/09/01 06:13:31;;;;;;;12.10;4.50;;;;;;;-128.00;-1.00;-1.00;105752;1251;1046190;-80
2023/09/01 06:15:58;;;;;;;5.70;3.60;;;;;;;-128.00;-1.00;-1.00;105497;1251;1004319;-80
2023/09/01 06:18:24;;;;;;;9.70;4.10;;;;;;;-128.00;-1.00;-1.00;105582;1251;1005109;-80
2023/09/01 06:20:51;;;;;;;15.30;5.60;;;;;;;-128.00;-1.00;-1.00;105693;1251;1004361;-80
2023/09/01 06:23:18;;;;;;;12.80;6.70;;;;;;;-128.00;-1.00;-1.00;105636;1252;1004288;-80
2023/09/01 06:25:44;;;;;;;10.60;5.50;;;;;;;-128.00;-1.00;-1.00;105521;1252;1005039;-80
2023/09/01 06:28:12;;;;;;;11.10;4.40;;;;;;;-128.00;-1.00;-1.00;105592;1251;1005416;-80
2023/09/01 06:30:42;;;;;;;8.50;5.30;;;;;;;-128.00;-1.00;-1.00;105737;1253;1003331;-80
2023/09/01 06:33:09;;;;;;;12.60;6.00;;;;;;;-128.00;-1.00;-1.00;105514;1254;1058741;-80
2023/09/01 06:35:36;;;;;;;7.80;4.10;;;;;;;-128.00;-1.00;-1.00;105723;1251;1004184;-80
2023/09/01 06:38:05;;;;;;;8.60;4.90;;;;;;;-128.00;-1.00;-1.00;105406;1251;1004557;-80
2023/09/01 06:40:32;;;;;;;8.50;5.20;;;;;;;-128.00;-1.00;-1.00;105734;1250;1047226;-80
2023/09/01 06:42:58;;;;;;;21.10;10.50;;;;;;;-128.00;-1.00;-1.00;105485;1254;1005113;-81
2023/09/01 06:45:26;;;;;;;13.70;6.80;;;;;;;-128.00;-1.00;-1.00;105559;1251;1004735;-80
2023/09/01 06:47:55;;;;;;;9.80;5.60;;;;;;;-128.00;-1.00;-1.00;105578;1251;1004197;-80
2023/09/01 06:50:21;;;;;;;11.20;6.10;;;;;;;-128.00;-1.00;-1.00;105519;1251;1045863;-81
2023/09/01 06:52:48;;;;;;;10.40;6.20;;;;;;;-128.00;-1.00;-1.00;105570;1251;1004160;-80
2023/09/01 06:55:15;;;;;;;10.40;6.60;;;;;;;-128.00;-1.00;-1.00;105604;1251;1004773;-80
2023/09/01 06:57:41;;;;;;;10.10;5.10;;;;;;;-128.00;-1.00;-1.00;105630;1250;1004301;-80
2023/09/01 07:00:09;;;;;;;7.40;4.60;;;;;;;-128.00;-1.00;-1.00;105573;1251;1004125;-80
2023/09/01 07:02:35;;;;;;;15.10;5.80;;;;;;;-128.00;-1.00;-1.00;105546;1250;1003821;-81
2023/09/01 07:05:05;;;;;;;7.10;4.10;;;;;;;-128.00;-1.00;-1.00;105562;1251;1004271;-81
2023/09/01 07:07:31;;;;;;;8.20;5.70;;;;;;;-128.00;-1.00;-1.00;105592;1251;1061941;-81
2023/09/01 07:09:57;;;;;;;13.10;5.30;;;;;;;-128.00;-1.00;-1.00;105734;1251;1005140;-81
2023/09/01 07:12:24;;;;;;;5.60;3.30;;;;;;;-128.00;-1.00;-1.00;105687;1251;1003878;-81
2023/09/01 07:14:51;;;;;;;7.70;4.20;;;;;;;-128.00;-1.00;-1.00;105712;1255;1003456;-81
2023/09/01 07:17:23;;;;;;;6.30;3.70;;;;;;;-128.00;-1.00;-1.00;105807;1250;1004983;-81
2023/09/01 07:19:49;;;;;;;7.30;3.50;;;;;;;-128.00;-1.00;-1.00;105756;1254;1061165;-81
2023/09/01 07:22:16;;;;;;;7.70;3.60;;;;;;;-128.00;-1.00;-1.00;105670;1250;1004723;-81
2023/09/01 07:24:43;;;;;;;6.50;3.40;;;;;;;-128.00;-1.00;-1.00;105704;1251;1005190;-81
2023/09/01 07:27:09;;;;;;;8.90;4.10;;;;;;;-128.00;-1.00;-1.00;105730;1251;1004058;-81
2023/09/01 07:29:38;;;;;;;5.50;4.20;;;;;;;-128.00;-1.00;-1.00;105724;1253;1004719;-81
2023/09/01 07:32:05;;;;;;;8.90;3.80;;;;;;;-128.00;-1.00;-1.00;105714;1251;1061595;-81
2023/09/01 07:34:32;;;;;;;5.40;3.30;;;;;;;-128.00;-1.00;-1.00;105702;1251;1004116;-81
2023/09/01 07:36:59;;;;;;;5.30;2.20;;;;;;;-128.00;-1.00;-1.00;105714;1251;1004080;-81
2023/09/01 07:39:25;;;;;;;7.50;3.40;;;;;;;-128.00;-1.00;-1.00;105721;1253;1004378;-81
2023/09/01 07:41:52;;;;;;;8.70;4.40;;;;;;;-128.00;-1.00;-1.00;105757;1251;1003551;-81
2023/09/01 07:44:20;;;;;;;11.30;5.10;;;;;;;-128.00;-1.00;-1.00;105744;1251;1004806;-81
2023/09/01 07:46:46;;;;;;;6.90;2.90;;;;;;;-128.00;-1.00;-1.00;105638;1251;1004234;-81
2023/09/01 07:49:13;;;;;;;4.50;2.60;;;;;;;-128.00;-1.00;-1.00;105693;1251;1005242;-81
2023/09/01 07:51:40;;;;;;;4.40;3.40;;;;;;;-128.00;-1.00;-1.00;105759;1254;1003688;-81
2023/09/01 07:54:06;;;;;;;5.50;2.60;;;;;;;-128.00;-1.00;-1.00;105671;1251;1004358;-81
2023/09/01 07:56:33;;;;;;;4.80;2.80;;;;;;;-128.00;-1.00;-1.00;105680;1251;1004587;-81
2023/09/01 07:59:00;;;;;;;5.20;2.60;;;;;;;-128.00;-1.00;-1.00;105735;1251;1004849;-81
2023/09/01 08:01:26;;;;;;;5.00;2.50;;;;;;;-128.00;-1.00;-1.00;105560;1253;1004156;-81
2023/09/01 08:03:54;;;;;;;7.80;2.70;;;;;;;-128.00;-1.00;-1.00;105695;1251;1004151;-81
2023/09/01 08:06:20;;;;;;;4.70;2.00;;;;;;;-128.00;-1.00;-1.00;105780;1250;1003934;-82
2023/09/01 08:08:47;;;;;;;8.40;2.70;;;;;;;-128.00;-1.00;-1.00;105547;1253;1004496;-81
2023/09/01 08:11:13;;;;;;;6.90;1.90;;;;;;;-128.00;-1.00;-1.00;105724;1254;1004099;-82
2023/09/01 08:13:40;;;;;;;8.40;2.50;;;;;;;-128.00;-1.00;-1.00;105643;1253;1005219;-81
2023/09/01 08:16:07;;;;;;;7.10;3.20;;;;;;;-128.00;-1.00;-1.00;105620;1251;1004665;-81
2023/09/01 08:18:33;;;;;;;4.80;2.50;;;;;;;-128.00;-1.00;-1.00;105671;1251;1003500;-81
2023/09/01 08:21:04;;;;;;;7.30;2.70;;;;;;;-128.00;-1.00;-1.00;105614;1251;1003884;-81
2023/09/01 08:23:31;;;;;;;7.40;2.90;;;;;;;-128.00;-1.00;-1.00;105644;1250;1058182;-81
2023/09/01 08:25:57;;;;;;;4.60;2.10;;;;;;;-128.00;-1.00;-1.00;105630;1251;1005069;-81
2023/09/01 08:28:24;;;;;;;3.80;1.70;;;;;;;-128.00;-1.00;-1.00;105610;1250;1003415;-81
2023/09/01 08:30:50;;;;;;;3.90;2.10;;;;;;;-128.00;-1.00;-1.00;105510;1253;1004188;-81
2023/09/01 08:33:17;;;;;;;4.20;2.20;;;;;;;-128.00;-1.00;-1.00;105551;1251;1004423;-81
2023/09/01 08:35:44;;;;;;;3.70;2.40;;;;;;;-128.00;-1.00;-1.00;105575;1250;1004298;-81
2023/09/01 08:38:10;;;;;;;6.60;2.50;;;;;;;-128.00;-1.00;-1.00;105605;1251;1005155;-81
2023/09/01 08:40:38;;;;;;;5.20;2.90;;;;;;;-128.00;-1.00;-1.00;105600;1251;1004689;-81
2023/09/01 08:43:04;;;;;;;5.70;3.00;;;;;;;-128.00;-1.00;-1.00;105589;1253;1004009;-81
2023/09/01 08:45:31;;;;;;;7.50;3.70;;;;;;;-128.00;-1.00;-1.00;105556;1251;1004281;-81
2023/09/01 08:47:58;;;;;;;9.50;4.40;;;;;;;-128.00;-1.00;-1.00;105624;1251;1004190;-81
2023/09/01 08:50:24;;;;;;;8.40;2.20;;;;;;;-128.00;-1.00;-1.00;105454;1253;1004466;-81
2023/09/01 08:52:51;;;;;;;3.70;1.70;;;;;;;-128.00;-1.00;-1.00;105432;1251;1005872;-81
2023/09/01 08:55:17;;;;;;;4.90;2.80;;;;;;;-128.00;-1.00;-1.00;105568;1251;1004106;-81
2023/09/01 08:57:47;;;;;;;3.80;1.90;;;;;;;-128.00;-1.00;-1.00;105647;1251;1003848;-81
2023/09/01 09:00:15;;;;;;;3.90;2.20;;;;;;;-128.00;-1.00;-1.00;105548;1253;1058619;-81
2023/09/01 09:02:42;;;;;;;3.60;2.10;;;;;;;-128.00;-1.00;-1.00;105598;1251;1004445;-81
2023/09/01 09:05:09;;;;;;;4.10;2.30;;;;;;;-128.00;-1.00;-1.00;105420;1251;1004561;-81
2023/09/01 09:07:36;;;;;;;6.10;2.90;;;;;;;-128.00;-1.00;-1.00;105532;1251;1004115;-81
2023/09/01 09:10:04;;;;;;;6.00;2.70;;;;;;;-128.00;-1.00;-1.00;105657;1251;1003440;-81
2023/09/01 09:12:43;;;;;;;4.80;2.50;;;;;;;-128.00;-1.00;-1.00;105469;1251;1059228;-81
2023/09/01 09:15:14;;;;;;;7.00;3.00;;;;;;;-128.00;-1.00;-1.00;105588;1251;1058732;-81
2023/09/01 09:17:44;;;;;;;5.70;3.50;;;;;;;-128.00;-1.00;-1.00;105583;1253;1044283;-81
2023/09/01 09:20:15;;;;;;;6.20;2.20;;;;;;;-128.00;-1.00;-1.00;105636;1251;1049250;-81
2023/09/01 09:23:10;;;;;;;4.50;2.50;;;;;;;-128.00;-1.00;-1.00;105571;1251;1061519;-81
2023/09/01 09:25:37;;;;;;;4.80;2.20;;;;;;;-128.00;-1.00;-1.00;105497;1251;1059913;-81
2023/09/01 09:28:18;;;;;;;3.60;1.90;;;;;;;-128.00;-1.00;-1.00;105639;1251;1003843;-81
2023/09/01 09:30:49;;;;;;;6.90;2.70;;;;;;;-128.00;-1.00;-1.00;105646;1252;1044291;-81
2023/09/01 09:33:15;;;;;;;6.90;2.70;;;;;;;-128.00;-1.00;-1.00;105491;1251;1049068;-81
2023/09/01 09:35:49;;;;;;;3.40;1.60;;;;;;;-128.00;-1.00;-1.00;105485;1251;1004154;-82
2023/09/01 09:38:16;;;;;;;4.50;2.00;;;;;;;-128.00;-1.00;-1.00;105617;1252;1057659;-81
2023/09/01 09:41:03;;;;;;;5.20;1.90;;;;;;;-128.00;-1.00;-1.00;105680;1251;1004528;-81
2023/09/01 09:43:46;;;;;;;4.20;2.30;;;;;;;-128.00;-1.00;-1.00;105496;1251;1045291;-81
2023/09/01 09:46:13;;;;;;;7.00;2.30;;;;;;;-128.00;-1.00;-1.00;105504;1251;1048208;-81
2023/09/01 09:48:40;;;;;;;4.60;2.10;;;;;;;-128.00;-1.00;-1.00;105656;1251;1004291;-81
2023/09/01 09:51:10;;;;;;;6.90;2.60;;;;;;;-128.00;-1.00;-1.00;105592;1254;1004276;-81
2023/09/01 09:53:38;;;;;;;6.40;2.20;;;;;;;-128.00;-1.00;-1.00;105598;1250;1059155;-81
2023/09/01 09:56:19;;;;;;;6.00;2.60;;;;;;;-128.00;-1.00;-1.00;105494;1253;1004711;-81
2023/09/01 09:58:47;;;;;;;5.20;2.70;;;;;;;-128.00;-1.00;-1.00;105537;1252;1048140;-81
2023/09/01 10:01:18;;;;;;;4.50;1.90;;;;;;;-128.00;-1.00;-1.00;105684;1251;1061153;-81
2023/09/01 10:03:46;;;;;;;4.20;2.00;;;;;;;-128.00;-1.00;-1.00;105513;1251;1058184;-81
2023/09/01 10:06:16;;;;;;;4.40;2.20;;;;;;;-128.00;-1.00;-1.00;105642;1250;1004618;-81
2023/09/01 10:08:44;;;;;;;10.20;2.10;;;;;;;-128.00;-1.00;-1.00;105615;1251;1045125;-81
2023/09/01 10:11:14;;;;;;;4.70;2.20;;;;;;;-128.00;-1.00;-1.00;105614;1251;1004372;-81
2023/09/01 10:13:43;;;;;;;7.20;2.50;;;;;;;-128.00;-1.00;-1.00;105561;1256;1061973;-83
2023/09/01 10:16:09;;;;;;;8.30;2.60;;;;;;;-128.00;-1.00;-1.00;105567;1256;1058490;-83
2023/09/01 10:18:36;;;;;;;6.50;2.40;;;;;;;-128.00;-1.00;-1.00;105606;1251;1003887;-83
2023/09/01 10:21:03;;;;;;;3.40;1.80;;;;;;;-128.00;-1.00;-1.00;105544;1251;1003608;-80
2023/09/01 10:23:30;;;;;;;3.50;2.50;;;;;;;-128.00;-1.00;-1.00;105532;1251;1004435;-80
2023/09/01 10:26:26;;;;;;;5.20;2.20;;;;;;;-128.00;-1.00;-1.00;105438;1251;1004331;-81
2023/09/01 10:28:56;;;;;;;5.30;2.10;;;;;;;-128.00;-1.00;-1.00;105552;1254;1058182;-80
2023/09/01 10:31:25;;;;;;;3.20;1.80;;;;;;;-128.00;-1.00;-1.00;105608;1251;1058816;-80
2023/09/01 10:34:05;;;;;;;6.20;2.00;;;;;;;-128.00;-1.00;-1.00;105576;1251;1043628;-80
2023/09/01 10:36:31;;;;;;;6.00;2.20;;;;;;;-128.00;-1.00;-1.00;105619;1250;1047793;-80
2023/09/01 10:39:11;;;;;;;8.40;3.00;;;;;;;-128.00;-1.00;-1.00;105678;1251;1003673;-80
2023/09/01 10:41:48;;;;;;;6.20;2.80;;;;;;;-128.00;-1.00;-1.00;105535;1251;1056878;-81
2023/09/01 10:44:15;;;;;;;5.80;2.40;;;;;;;-128.00;-1.00;-1.00;105427;1254;1059056;-80
2023/09/01 10:46:41;;;;;;;8.50;3.30;;;;;;;-128.00;-1.00;-1.00;105604;1253;1004141;-80
2023/09/01 10:49:10;;;;;;;10.20;2.90;;;;;;;-128.00;-1.00;-1.00;105629;1251;1004142;-80
2023/09/01 10:51:43;;;;;;;5.00;2.10;;;;;;;-128.00;-1.00;-1.00;105612;1251;1003801;-80
2023/09/01 10:54:35;;;;;;;6.70;2.70;;;;;;;-128.00;-1.00;-1.00;105524;1251;1059345;-80
2023/09/01 10:57:02;;;;;;;11.00;2.90;;;;;;;-128.00;-1.00;-1.00;105567;1251;1059284;-83
2023/09/01 10:59:35;;;;;;;5.50;3.10;;;;;;;-128.00;-1.00;-1.00;105619;1251;1005109;-80
2023/09/01 11:02:20;;;;;;;8.00;3.20;;;;;;;-128.00;-1.00;-1.00;105516;1251;1047050;-82
2023/09/01 11:04:47;;;;;;;6.10;2.60;;;;;;;-128.00;-1.00;-1.00;105681;1250;1061477;-84
2023/09/01 11:07:13;;;;;;;5.10;2.50;;;;;;;-128.00;-1.00;-1.00;105536;1253;1004268;-82
2023/09/01 11:09:42;;;;;;;6.70;2.20;;;;;;;-128.00;-1.00;-1.00;105586;1251;1003753;-82
2023/09/01 11:12:09;;;;;;;;;;;;;;;-128.00;-1.00;-1.00;105602;1250;1044712;-82
2023/09/01 11:14:52;;;;;;;4.30;2.00;;;;;;;-128.00;-1.00;-1.00;105631;1251;1004349;-82
2023/09/01 11:17:43;;;;;;;4.60;2.10;;;;;;;-128.00;-1.00;-1.00;105488;1251;1061784;-82
2023/09/01 11:20:11;;;;;;;4.90;2.10;;;;;;;-128.00;-1.00;-1.00;105605;1251;1056777;-82
2023/09/01 11:22:41;;;;;;;4.80;2.30;;;;;;;-128.00;-1.00;-1.00;105597;1251;1003996;-83